sensor_id;sensor_type;location;lat;lon;timestamp;pressure;altitude;pressure_sealevel;temperature;humidity
37450;BME280;23309;52.582;13.406;2022-12-20T05:48:33;101182.09;;;13.73;42.97
37450;BME280;23309;52.582;13.406;2022-12-20T05:51:00;101192.50;;;13.76;42.76
37450;BME280;23309;52.582;13.406;2022-12-20T05:53:26;101193.38;;;13.77;42.86
37450;BME280;23309;52.582;13.406;2022-12-20T05:55:53;101202.44;;;13.76;42.87
37450;BME280;23309;52.582;13.406;2022-12-20T05:58:19;101215.44;;;13.71;43.03
37450;BME280;23309;52.582;13.406;2022-12-20T06:00:46;101207.22;;;13.72;42.82
37450;BME280;23309;52.582;13.406;2022-12-20T06:03:12;101204.38;;;13.74;43.08
37450;BME280;23309;52.582;13.406;2022-12-20T06:05:42;101184.03;;;13.81;43.02
37450;BME280;23309;52.582;13.406;2022-12-20T06:08:08;101185.13;;;13.88;43.09
37450;BME280;23309;52.582;13.406;2022-12-20T06:10:35;101190.63;;;13.96;43.02
37450;BME280;23309;52.582;13.406;2022-12-20T06:13:02;101198.88;;;13.85;43.25
37450;BME280;23309;52.582;13.406;2022-12-20T06:15:29;101207.06;;;13.83;43.32
37450;BME280;23309;52.582;13.406;2022-12-20T06:17:55;101205.38;;;13.82;43.76
37450;BME280;23309;52.582;13.406;2022-12-20T06:20:22;101209.34;;;13.78;43.52
37450;BME280;23309;52.582;13.406;2022-12-20T06:22:51;101224.59;;;13.78;43.68
37450;BME280;23309;52.582;13.406;2022-12-20T06:25:17;101213.59;;;13.81;43.69
37450;BME280;23309;52.582;13.406;2022-12-20T06:27:43;101226.69;;;13.84;43.87
37450;BME280;23309;52.582;13.406;2022-12-20T06:30:10;101217.69;;;13.85;43.70
37450;BME280;23309;52.582;13.406;2022-12-20T06:32:36;101226.69;;;13.93;43.55
37450;BME280;23309;52.582;13.406;2022-12-20T06:35:03;101218.22;;;13.98;43.80
37450;BME280;23309;52.582;13.406;2022-12-20T06:37:30;101215.34;;;13.99;43.75
37450;BME280;23309;52.582;13.406;2022-12-20T06:39:58;101223.13;;;14.02;44.04
37450;BME280;23309;52.582;13.406;2022-12-20T06:42:24;101216.06;;;14.01;44.31
37450;BME280;23309;52.582;13.406;2022-12-20T06:44:50;101224.13;;;14.01;44.57
37450;BME280;23309;52.582;13.406;2022-12-20T06:47:17;101220.19;;;13.96;44.41
37450;BME280;23309;52.582;13.406;2022-12-20T06:49:43;101222.31;;;13.92;44.88
37450;BME280;23309;52.582;13.406;2022-12-20T06:52:09;101230.38;;;13.92;44.73
37450;BME280;23309;52.582;13.406;2022-12-20T06:54:35;101223.69;;;14.06;45.26
37450;BME280;23309;52.582;13.406;2022-12-20T06:57:03;101221.41;;;14.11;45.17
37450;BME280;23309;52.582;13.406;2022-12-20T06:59:30;101228.59;;;14.20;44.58
37450;BME280;23309;52.582;13.406;2022-12-20T07:01:56;101228.34;;;14.13;44.81
37450;BME280;23309;52.582;13.406;2022-12-20T07:04:25;101214.66;;;14.07;44.88
37450;BME280;23309;52.582;13.406;2022-12-20T07:06:51;101227.91;;;14.18;45.39
37450;BME280;23309;52.582;13.406;2022-12-20T07:09:17;101224.22;;;14.19;45.06
37450;BME280;23309;52.582;13.406;2022-12-20T07:11:43;101223.66;;;14.15;45.07
37450;BME280;23309;52.582;13.406;2022-12-20T07:14:12;101222.66;;;14.16;45.54
37450;BME280;23309;52.582;13.406;2022-12-20T07:16:38;101228.50;;;14.12;45.65
37450;BME280;23309;52.582;13.406;2022-12-20T07:19:04;101233.88;;;14.12;45.53
37450;BME280;23309;52.582;13.406;2022-12-20T07:21:30;101240.81;;;14.05;45.77
37450;BME280;23309;52.582;13.406;2022-12-20T07:23:57;101240.25;;;13.92;46.01
37450;BME280;23309;52.582;13.406;2022-12-20T07:26:23;101241.97;;;13.83;46.53
37450;BME280;23309;52.582;13.406;2022-12-20T07:28:49;101246.78;;;13.89;46.80
37450;BME280;23309;52.582;13.406;2022-12-20T07:31:17;101253.69;;;13.92;46.92
37450;BME280;23309;52.582;13.406;2022-12-20T07:33:43;101256.50;;;13.90;46.65
37450;BME280;23309;52.582;13.406;2022-12-20T07:36:12;101264.00;;;13.96;47.05
37450;BME280;23309;52.582;13.406;2022-12-20T07:38:39;101265.84;;;14.05;46.99
37450;BME280;23309;52.582;13.406;2022-12-20T07:41:09;101265.78;;;14.15;46.69
37450;BME280;23309;52.582;13.406;2022-12-20T07:43:36;101267.06;;;14.11;46.67
37450;BME280;23309;52.582;13.406;2022-12-20T07:46:03;101267.94;;;14.11;46.89
37450;BME280;23309;52.582;13.406;2022-12-20T07:48:33;101263.09;;;14.15;47.00
37450;BME280;23309;52.582;13.406;2022-12-20T07:51:04;101272.72;;;14.17;47.14
37450;BME280;23309;52.582;13.406;2022-12-20T07:53:33;101263.41;;;14.12;47.67
37450;BME280;23309;52.582;13.406;2022-12-20T07:56:01;101257.19;;;14.11;47.53
37450;BME280;23309;52.582;13.406;2022-12-20T07:58:31;101254.63;;;14.10;47.51
37450;BME280;23309;52.582;13.406;2022-12-20T08:00:59;101264.50;;;14.19;47.69
37450;BME280;23309;52.582;13.406;2022-12-20T08:03:34;101262.69;;;14.19;47.70
37450;BME280;23309;52.582;13.406;2022-12-20T08:06:05;101260.81;;;14.20;48.02
37450;BME280;23309;52.582;13.406;2022-12-20T08:08:33;101257.91;;;14.23;48.21
37450;BME280;23309;52.582;13.406;2022-12-20T08:11:01;101263.66;;;14.28;48.03
37450;BME280;23309;52.582;13.406;2022-12-20T08:13:28;101258.00;;;14.31;47.72
37450;BME280;23309;52.582;13.406;2022-12-20T08:15:54;101250.63;;;14.33;47.88
37450;BME280;23309;52.582;13.406;2022-12-20T08:18:20;101245.97;;;14.35;48.00
37450;BME280;23309;52.582;13.406;2022-12-20T08:20:50;101251.63;;;14.41;47.58
37450;BME280;23309;52.582;13.406;2022-12-20T08:23:16;101263.06;;;14.43;47.85
37450;BME280;23309;52.582;13.406;2022-12-20T08:25:42;101254.16;;;14.43;47.74
37450;BME280;23309;52.582;13.406;2022-12-20T08:28:08;101253.16;;;14.44;47.94
37450;BME280;23309;52.582;13.406;2022-12-20T08:30:35;101257.13;;;14.40;47.88
37450;BME280;23309;52.582;13.406;2022-12-20T08:33:01;101254.19;;;14.33;48.24
37450;BME280;23309;52.582;13.406;2022-12-20T08:35:27;101254.31;;;14.32;48.05
37450;BME280;23309;52.582;13.406;2022-12-20T08:37:56;101254.31;;;14.32;48.59
37450;BME280;23309;52.582;13.406;2022-12-20T08:40:22;101247.94;;;14.33;48.37
37450;BME280;23309;52.582;13.406;2022-12-20T08:42:48;101242.16;;;14.37;48.67
37450;BME280;23309;52.582;13.406;2022-12-20T08:45:14;101232.34;;;14.46;48.73
37450;BME280;23309;52.582;13.406;2022-12-20T08:47:41;101233.06;;;14.48;48.32
37450;BME280;23309;52.582;13.406;2022-12-20T08:50:08;101241.13;;;14.48;48.44
37450;BME280;23309;52.582;13.406;2022-12-20T08:52:34;101233.06;;;14.48;48.45
37450;BME280;23309;52.582;13.406;2022-12-20T08:55:04;101235.19;;;14.44;48.49
37450;BME280;23309;52.582;13.406;2022-12-20T08:57:30;101233.88;;;14.48;48.53
37450;BME280;23309;52.582;13.406;2022-12-20T08:59:56;101198.34;;;14.27;48.88
37450;BME280;23309;52.582;13.406;2022-12-20T09:02:22;101232.75;;;14.51;48.82
37450;BME280;23309;52.582;13.406;2022-12-20T09:04:48;101235.28;;;14.52;48.67
37450;BME280;23309;52.582;13.406;2022-12-20T09:07:14;101235.13;;;14.63;48.68
37450;BME280;23309;52.582;13.406;2022-12-20T09:09:41;101231.22;;;14.75;48.75
37450;BME280;23309;52.582;13.406;2022-12-20T09:12:09;101226.69;;;14.76;48.35
37450;BME280;23309;52.582;13.406;2022-12-20T09:14:37;101232.06;;;14.76;48.27
37450;BME280;23309;52.582;13.406;2022-12-20T09:17:03;101242.81;;;14.76;48.51
37450;BME280;23309;52.582;13.406;2022-12-20T09:19:29;101235.28;;;14.79;48.65
37450;BME280;23309;52.582;13.406;2022-12-20T09:21:55;101233.59;;;14.78;48.48
37450;BME280;23309;52.582;13.406;2022-12-20T09:24:22;101224.63;;;14.87;48.70
37450;BME280;23309;52.582;13.406;2022-12-20T09:26:48;101209.59;;;14.94;48.32
37450;BME280;23309;52.582;13.406;2022-12-20T09:29:17;101210.66;;;15.01;48.50
37450;BME280;23309;52.582;13.406;2022-12-20T09:31:43;101203.44;;;15.02;48.44
37450;BME280;23309;52.582;13.406;2022-12-20T09:34:09;101223.22;;;15.10;48.51
37450;BME280;23309;52.582;13.406;2022-12-20T09:36:36;101207.69;;;15.22;48.67
37450;BME280;23309;52.582;13.406;2022-12-20T09:39:02;101202.69;;;15.27;48.46
37450;BME280;23309;52.582;13.406;2022-12-20T09:41:32;101202.53;;;15.28;48.43
37450;BME280;23309;52.582;13.406;2022-12-20T09:44:05;101209.66;;;15.47;48.41
37450;BME280;23309;52.582;13.406;2022-12-20T09:46:39;101201.88;;;15.44;47.67
37450;BME280;23309;52.582;13.406;2022-12-20T09:49:09;101201.09;;;15.51;48.28
37450;BME280;23309;52.582;13.406;2022-12-20T09:54:49;101211.81;;;15.86;47.50
37450;BME280;23309;52.582;13.406;2022-12-20T09:57:22;101208.44;;;15.84;47.39
37450;BME280;23309;52.582;13.406;2022-12-20T09:59:55;101216.97;;;15.80;47.14
37450;BME280;23309;52.582;13.406;2022-12-20T10:02:25;101207.06;;;15.80;47.22
37450;BME280;23309;52.582;13.406;2022-12-20T10:04:54;101207.28;;;15.87;46.76
37450;BME280;23309;52.582;13.406;2022-12-20T10:07:33;101213.72;;;15.94;47.00
37450;BME280;23309;52.582;13.406;2022-12-20T10:10:31;101206.31;;;15.96;46.53
37450;BME280;23309;52.582;13.406;2022-12-20T10:13:09;101207.09;;;15.88;46.67
37450;BME280;23309;52.582;13.406;2022-12-20T10:15:44;101215.56;;;15.93;47.29
37450;BME280;23309;52.582;13.406;2022-12-20T10:18:38;101189.66;;;16.00;46.58
37450;BME280;23309;52.582;13.406;2022-12-20T10:21:15;101201.41;;;15.91;46.89
37450;BME280;23309;52.582;13.406;2022-12-20T10:23:55;101199.78;;;15.98;46.85
37450;BME280;23309;52.582;13.406;2022-12-20T10:26:23;101193.38;;;15.99;47.10
37450;BME280;23309;52.582;13.406;2022-12-20T10:28:49;101181.16;;;16.13;46.65
37450;BME280;23309;52.582;13.406;2022-12-20T10:31:17;101190.34;;;16.28;46.03
37450;BME280;23309;52.582;13.406;2022-12-20T10:33:46;101182.09;;;16.29;46.00
37450;BME280;23309;52.582;13.406;2022-12-20T10:36:22;101166.28;;;16.34;45.93
37450;BME280;23309;52.582;13.406;2022-12-20T10:38:52;101159.09;;;16.43;45.88
37450;BME280;23309;52.582;13.406;2022-12-20T10:41:21;101152.19;;;16.40;46.21
37450;BME280;23309;52.582;13.406;2022-12-20T10:43:52;101141.59;;;16.47;45.86
37450;BME280;23309;52.582;13.406;2022-12-20T10:46:20;101145.97;;;16.48;45.34
37450;BME280;23309;52.582;13.406;2022-12-20T10:48:49;101141.06;;;16.51;45.75
37450;BME280;23309;52.582;13.406;2022-12-20T10:51:18;101141.44;;;16.48;46.34
37450;BME280;23309;52.582;13.406;2022-12-20T10:53:55;101133.88;;;16.60;45.97
37450;BME280;23309;52.582;13.406;2022-12-20T10:56:24;101127.28;;;16.54;45.58
37450;BME280;23309;52.582;13.406;2022-12-20T10:58:53;101108.56;;;16.45;45.93
37450;BME280;23309;52.582;13.406;2022-12-20T11:01:24;101123.63;;;16.71;45.37
37450;BME280;23309;52.582;13.406;2022-12-20T11:03:58;101115.38;;;16.89;45.79
37450;BME280;23309;52.582;13.406;2022-12-20T11:06:28;101119.44;;;17.01;45.39
37450;BME280;23309;52.582;13.406;2022-12-20T11:09:32;101093.47;;;17.16;44.93
37450;BME280;23309;52.582;13.406;2022-12-20T11:12:05;101090.44;;;16.95;45.02
37450;BME280;23309;52.582;13.406;2022-12-20T11:14:34;101086.72;;;16.88;44.61
37450;BME280;23309;52.582;13.406;2022-12-20T11:17:12;101076.41;;;16.91;44.68
37450;BME280;23309;52.582;13.406;2022-12-20T11:20:00;101088.09;;;17.00;44.49
37450;BME280;23309;52.582;13.406;2022-12-20T11:22:45;101083.88;;;16.97;44.66
37450;BME280;23309;52.582;13.406;2022-12-20T11:25:40;101082.84;;;16.98;44.39
37450;BME280;23309;52.582;13.406;2022-12-20T11:28:27;101079.50;;;16.96;44.32
37450;BME280;23309;52.582;13.406;2022-12-20T11:31:10;101045.56;;;16.94;43.99
37450;BME280;23309;52.582;13.406;2022-12-20T11:34:01;101089.41;;;17.20;43.67
37450;BME280;23309;52.582;13.406;2022-12-20T11:36:44;101070.03;;;17.16;43.77
37450;BME280;23309;52.582;13.406;2022-12-20T11:39:21;101079.47;;;17.20;43.53
37450;BME280;23309;52.582;13.406;2022-12-20T11:42:00;101079.31;;;17.22;43.04
37450;BME280;23309;52.582;13.406;2022-12-20T11:44:41;101076.09;;;17.26;43.59
37450;BME280;23309;52.582;13.406;2022-12-20T11:47:30;101071.06;;;17.39;43.27
37450;BME280;23309;52.582;13.406;2022-12-20T11:50:19;101061.06;;;17.32;42.38
37450;BME280;23309;52.582;13.406;2022-12-20T11:52:58;101055.84;;;17.30;43.01
37450;BME280;23309;52.582;13.406;2022-12-20T11:55:27;101059.88;;;17.34;43.31
37450;BME280;23309;52.582;13.406;2022-12-20T11:58:00;101043.53;;;17.36;42.97
37450;BME280;23309;52.582;13.406;2022-12-20T12:00:31;101047.94;;;17.45;42.47
37450;BME280;23309;52.582;13.406;2022-12-20T12:03:09;101051.97;;;17.49;42.50
37450;BME280;23309;52.582;13.406;2022-12-20T12:05:42;101056.53;;;17.40;42.27
37450;BME280;23309;52.582;13.406;2022-12-20T12:08:16;101061.75;;;17.42;42.38
37450;BME280;23309;52.582;13.406;2022-12-20T12:10:52;101058.56;;;17.46;42.27
37450;BME280;23309;52.582;13.406;2022-12-20T12:13:25;101055.00;;;17.46;41.86
37450;BME280;23309;52.582;13.406;2022-12-20T12:15:57;101060.09;;;17.41;42.13
37450;BME280;23309;52.582;13.406;2022-12-20T12:18:28;101049.59;;;17.46;42.50
37450;BME280;23309;52.582;13.406;2022-12-20T12:21:00;101043.72;;;17.50;42.18
37450;BME280;23309;52.582;13.406;2022-12-20T12:23:35;101035.84;;;17.79;41.95
37450;BME280;23309;52.582;13.406;2022-12-20T12:26:12;101028.16;;;17.99;41.33
37450;BME280;23309;52.582;13.406;2022-12-20T12:28:41;101020.16;;;18.13;41.54
37450;BME280;23309;52.582;13.406;2022-12-20T12:31:10;101025.50;;;18.21;40.99
37450;BME280;23309;52.582;13.406;2022-12-20T12:33:42;101019.28;;;18.21;40.27
37450;BME280;23309;52.582;13.406;2022-12-20T12:36:27;101023.09;;;18.26;40.41
37450;BME280;23309;52.582;13.406;2022-12-20T12:39:34;101006.56;;;18.21;40.85
37450;BME280;23309;52.582;13.406;2022-12-20T12:42:38;101004.41;;;18.17;40.97
37450;BME280;23309;52.582;13.406;2022-12-20T12:45:16;101001.31;;;17.97;41.12
37450;BME280;23309;52.582;13.406;2022-12-20T12:47:49;101004.31;;;18.02;41.36
37450;BME280;23309;52.582;13.406;2022-12-20T12:50:23;100999.41;;;18.06;41.12
37450;BME280;23309;52.582;13.406;2022-12-20T12:52:53;100994.22;;;17.96;41.01
37450;BME280;23309;52.582;13.406;2022-12-20T12:55:42;100983.56;;;18.03;41.03
37450;BME280;23309;52.582;13.406;2022-12-20T13:00:57;100986.25;;;17.64;41.24
37450;BME280;23309;52.582;13.406;2022-12-20T13:03:42;100988.88;;;17.80;41.56
37450;BME280;23309;52.582;13.406;2022-12-20T13:06:42;100985.28;;;17.88;41.37
37450;BME280;23309;52.582;13.406;2022-12-20T13:09:34;100975.06;;;17.75;41.69
37450;BME280;23309;52.582;13.406;2022-12-20T13:12:47;100977.72;;;17.83;40.91
37450;BME280;23309;52.582;13.406;2022-12-20T13:18:31;100978.66;;;17.60;41.42
37450;BME280;23309;52.582;13.406;2022-12-20T13:21:31;100976.25;;;17.73;41.28
37450;BME280;23309;52.582;13.406;2022-12-20T13:24:37;100967.34;;;17.64;41.20
37450;BME280;23309;52.582;13.406;2022-12-20T13:27:34;100972.78;;;17.56;41.59
37450;BME280;23309;52.582;13.406;2022-12-20T13:30:26;100987.63;;;17.52;41.22
37450;BME280;23309;52.582;13.406;2022-12-20T13:33:23;100985.59;;;17.54;41.06
37450;BME280;23309;52.582;13.406;2022-12-20T13:36:36;100987.50;;;17.46;41.16
37450;BME280;23309;52.582;13.406;2022-12-20T13:39:31;100982.06;;;17.38;40.73
37450;BME280;23309;52.582;13.406;2022-12-20T13:42:31;100980.94;;;17.24;41.18
37450;BME280;23309;52.582;13.406;2022-12-20T13:45:03;100974.69;;;17.16;41.68
37450;BME280;23309;52.582;13.406;2022-12-20T13:47:44;100969.44;;;17.22;41.12
37450;BME280;23309;52.582;13.406;2022-12-20T13:50:28;100957.50;;;17.17;41.50
37450;BME280;23309;52.582;13.406;2022-12-20T13:52:56;100958.69;;;17.06;40.96
37450;BME280;23309;52.582;13.406;2022-12-20T13:55:31;100964.75;;;17.00;41.19
37450;BME280;23309;52.582;13.406;2022-12-20T13:58:11;100970.16;;;17.08;40.90
37450;BME280;23309;52.582;13.406;2022-12-20T14:00:37;100969.88;;;16.87;40.82
37450;BME280;23309;52.582;13.406;2022-12-20T14:03:04;100971.88;;;16.85;41.26
37450;BME280;23309;52.582;13.406;2022-12-20T14:05:36;100973.22;;;16.81;41.56
37450;BME280;23309;52.582;13.406;2022-12-20T14:08:06;100975.41;;;16.78;41.24
37450;BME280;23309;52.582;13.406;2022-12-20T14:10:34;100976.44;;;16.77;41.07
37450;BME280;23309;52.582;13.406;2022-12-20T14:13:17;100974.56;;;16.77;40.82
37450;BME280;23309;52.582;13.406;2022-12-20T14:15:44;100945.72;;;16.62;41.06
37450;BME280;23309;52.582;13.406;2022-12-20T14:18:18;100963.09;;;16.67;41.19
37450;BME280;23309;52.582;13.406;2022-12-20T14:20:47;100957.38;;;16.54;41.18
37450;BME280;23309;52.582;13.406;2022-12-20T14:23:16;100955.00;;;16.51;41.63
37450;BME280;23309;52.582;13.406;2022-12-20T14:25:48;100957.03;;;16.49;41.13
37450;BME280;23309;52.582;13.406;2022-12-20T14:28:29;100947.28;;;16.56;40.85
37450;BME280;23309;52.582;13.406;2022-12-20T14:30:57;100955.03;;;16.43;41.61
37450;BME280;23309;52.582;13.406;2022-12-20T14:33:29;100960.59;;;16.50;41.42
37450;BME280;23309;52.582;13.406;2022-12-20T14:35:56;100958.72;;;16.50;40.94
37450;BME280;23309;52.582;13.406;2022-12-20T14:38:27;100944.56;;;16.40;41.33
37450;BME280;23309;52.582;13.406;2022-12-20T14:40:53;100945.59;;;16.47;41.00
37450;BME280;23309;52.582;13.406;2022-12-20T14:43:31;100941.19;;;16.54;40.95
37450;BME280;23309;52.582;13.406;2022-12-20T14:46:18;100933.59;;;16.66;40.31
37450;BME280;23309;52.582;13.406;2022-12-20T14:48:45;100933.25;;;16.53;41.05
37450;BME280;23309;52.582;13.406;2022-12-20T14:51:12;100927.69;;;16.46;41.09
37450;BME280;23309;52.582;13.406;2022-12-20T14:53:44;100936.63;;;16.47;40.34
37450;BME280;23309;52.582;13.406;2022-12-20T14:56:14;100933.94;;;16.47;40.59
37450;BME280;23309;52.582;13.406;2022-12-20T14:58:45;100928.72;;;16.53;40.40
37450;BME280;23309;52.582;13.406;2022-12-20T15:01:20;100925.00;;;16.54;40.42
37450;BME280;23309;52.582;13.406;2022-12-20T15:03:51;100937.97;;;16.43;40.43
37450;BME280;23309;52.582;13.406;2022-12-20T15:06:32;100921.66;;;16.52;40.29
37450;BME280;23309;52.582;13.406;2022-12-20T15:08:59;100928.38;;;16.48;40.23
37450;BME280;23309;52.582;13.406;2022-12-20T15:11:26;100932.09;;;16.47;40.46
37450;BME280;23309;52.582;13.406;2022-12-20T15:13:56;100925.69;;;16.40;39.85
37450;BME280;23309;52.582;13.406;2022-12-20T15:16:24;100923.13;;;16.39;39.99
37450;BME280;23309;52.582;13.406;2022-12-20T15:18:53;100923.00;;;16.40;39.93
37450;BME280;23309;52.582;13.406;2022-12-20T15:21:28;100910.16;;;16.34;40.18
37450;BME280;23309;52.582;13.406;2022-12-20T15:23:57;100910.81;;;16.28;40.53
37450;BME280;23309;52.582;13.406;2022-12-20T15:26:26;100915.53;;;16.26;40.12
37450;BME280;23309;52.582;13.406;2022-12-20T15:28:55;100907.59;;;16.17;40.43
37450;BME280;23309;52.582;13.406;2022-12-20T15:31:22;100904.72;;;16.10;40.35
37450;BME280;23309;52.582;13.406;2022-12-20T15:33:50;100901.22;;;16.18;40.27
37450;BME280;23309;52.582;13.406;2022-12-20T15:36:18;100888.38;;;16.12;40.20
37450;BME280;23309;52.582;13.406;2022-12-20T15:38:45;100893.63;;;16.13;40.41
37450;BME280;23309;52.582;13.406;2022-12-20T15:41:22;100905.06;;;16.23;40.15
37450;BME280;23309;52.582;13.406;2022-12-20T15:43:54;100907.94;;;16.22;40.35
37450;BME280;23309;52.582;13.406;2022-12-20T15:46:21;100902.75;;;16.20;40.32
37450;BME280;23309;52.582;13.406;2022-12-20T15:48:48;100892.59;;;16.14;39.79
37450;BME280;23309;52.582;13.406;2022-12-20T15:51:18;100895.66;;;16.11;40.31
37450;BME280;23309;52.582;13.406;2022-12-20T15:53:46;100901.03;;;16.11;39.97
37450;BME280;23309;52.582;13.406;2022-12-20T15:56:18;100892.09;;;16.11;39.83
37450;BME280;23309;52.582;13.406;2022-12-20T15:58:45;100903.56;;;16.05;40.27
37450;BME280;23309;52.582;13.406;2022-12-20T16:01:16;100892.09;;;16.03;40.56
37450;BME280;23309;52.582;13.406;2022-12-20T16:03:43;100885.03;;;16.02;40.12
37450;BME280;23309;52.582;13.406;2022-12-20T16:06:10;100880.28;;;16.04;40.15
37450;BME280;23309;52.582;13.406;2022-12-20T16:08:37;100876.91;;;15.94;39.90
37450;BME280;23309;52.582;13.406;2022-12-20T16:11:05;100877.78;;;15.94;40.44
37450;BME280;23309;52.582;13.406;2022-12-20T16:13:31;100871.69;;;15.92;40.35
37450;BME280;23309;52.582;13.406;2022-12-20T16:15:57;100872.22;;;15.96;40.52
37450;BME280;23309;52.582;13.406;2022-12-20T16:18:26;100881.28;;;15.95;40.50
37450;BME280;23309;52.582;13.406;2022-12-20T16:20:53;100870.88;;;15.92;40.50
37450;BME280;23309;52.582;13.406;2022-12-20T16:23:21;100870.16;;;15.90;40.72
37450;BME280;23309;52.582;13.406;2022-12-20T16:25:48;100867.50;;;15.98;40.09
37450;BME280;23309;52.582;13.406;2022-12-20T16:28:14;100871.03;;;15.90;40.21
37450;BME280;23309;52.582;13.406;2022-12-20T16:30:40;100867.50;;;15.98;40.01
37450;BME280;23309;52.582;13.406;2022-12-20T16:33:16;100857.22;;;15.85;39.90
37450;BME280;23309;52.582;13.406;2022-12-20T16:35:46;100853.97;;;15.66;40.42
37450;BME280;23309;52.582;13.406;2022-12-20T16:38:12;100866.25;;;15.68;40.45
37450;BME280;23309;52.582;13.406;2022-12-20T16:40:39;100851.13;;;15.67;40.29
37450;BME280;23309;52.582;13.406;2022-12-20T16:43:08;100859.19;;;15.67;40.71
37450;BME280;23309;52.582;13.406;2022-12-20T16:45:36;100857.69;;;15.73;40.18
37450;BME280;23309;52.582;13.406;2022-12-20T16:48:02;100863.38;;;15.62;40.29
37450;BME280;23309;52.582;13.406;2022-12-20T16:50:29;100869.63;;;15.62;40.52
37450;BME280;23309;52.582;13.406;2022-12-20T16:52:57;100854.13;;;15.64;40.59
37450;BME280;23309;52.582;13.406;2022-12-20T16:55:26;100847.09;;;15.71;40.78
37450;BME280;23309;52.582;13.406;2022-12-20T16:57:53;100847.44;;;15.76;40.03
37450;BME280;23309;52.582;13.406;2022-12-20T17:00:21;100857.88;;;15.71;40.64
37450;BME280;23309;52.582;13.406;2022-12-20T17:02:48;100857.50;;;15.74;40.68
37450;BME280;23309;52.582;13.406;2022-12-20T17:05:23;100848.63;;;15.82;40.40
37450;BME280;23309;52.582;13.406;2022-12-20T17:07:50;100857.84;;;15.79;40.81
37450;BME280;23309;52.582;13.406;2022-12-20T17:10:21;100848.13;;;15.86;40.39
37450;BME280;23309;52.582;13.406;2022-12-20T17:12:48;100840.72;;;15.80;40.11
37450;BME280;23309;52.582;13.406;2022-12-20T17:15:19;100850.78;;;15.78;40.48
37450;BME280;23309;52.582;13.406;2022-12-20T17:17:46;100848.25;;;15.69;40.75
37450;BME280;23309;52.582;13.406;2022-12-20T17:20:14;100838.81;;;15.65;40.36
37450;BME280;23309;52.582;13.406;2022-12-20T17:22:41;100827.53;;;15.61;40.70
37450;BME280;23309;52.582;13.406;2022-12-20T17:25:22;100837.47;;;15.77;40.13
37450;BME280;23309;52.582;13.406;2022-12-20T17:27:49;100832.44;;;15.74;40.27
37450;BME280;23309;52.582;13.406;2022-12-20T17:30:16;100825.69;;;15.70;40.56
37450;BME280;23309;52.582;13.406;2022-12-20T17:32:42;100839.97;;;15.54;40.65
37450;BME280;23309;52.582;13.406;2022-12-20T17:35:18;100855.34;;;15.78;40.30
37450;BME280;23309;52.582;13.406;2022-12-20T17:37:45;100848.06;;;15.62;40.17
37450;BME280;23309;52.582;13.406;2022-12-20T17:40:13;100851.44;;;15.64;40.11
37450;BME280;23309;52.582;13.406;2022-12-20T17:42:42;100865.06;;;15.63;40.19
37450;BME280;23309;52.582;13.406;2022-12-20T17:45:25;100871.31;;;15.71;40.06
37450;BME280;23309;52.582;13.406;2022-12-20T17:47:51;100864.88;;;15.56;40.29
37450;BME280;23309;52.582;13.406;2022-12-20T17:50:18;100872.16;;;15.64;40.31
37450;BME280;23309;52.582;13.406;2022-12-20T17:52:44;100866.22;;;15.60;40.38
37450;BME280;23309;52.582;13.406;2022-12-20T17:55:16;100847.91;;;15.56;40.29
37450;BME280;23309;52.582;13.406;2022-12-20T17:57:45;100837.97;;;15.64;40.27
37450;BME280;23309;52.582;13.406;2022-12-20T18:00:24;100830.56;;;15.74;40.10
37450;BME280;23309;52.582;13.406;2022-12-20T18:02:51;100845.41;;;15.78;40.00
37450;BME280;23309;52.582;13.406;2022-12-20T18:05:17;100846.25;;;15.71;39.89
37450;BME280;23309;52.582;13.406;2022-12-20T18:07:49;100840.88;;;15.79;39.90
37450;BME280;23309;52.582;13.406;2022-12-20T18:10:16;100842.84;;;15.61;39.89
37450;BME280;23309;52.582;13.406;2022-12-20T18:12:45;100854.47;;;15.69;39.91
37450;BME280;23309;52.582;13.406;2022-12-20T18:15:12;100852.31;;;15.73;39.96
37450;BME280;23309;52.582;13.406;2022-12-20T18:17:39;100853.63;;;15.77;39.73
37450;BME280;23309;52.582;13.406;2022-12-20T18:20:08;100846.06;;;15.72;39.66
37450;BME280;23309;52.582;13.406;2022-12-20T18:22:35;100845.72;;;15.67;39.88
37450;BME280;23309;52.582;13.406;2022-12-20T18:25:02;100845.38;;;15.62;40.63
37450;BME280;23309;52.582;13.406;2022-12-20T18:27:29;100853.13;;;15.57;41.20
37450;BME280;23309;52.582;13.406;2022-12-20T18:29:59;100848.88;;;15.47;41.11
37450;BME280;23309;52.582;13.406;2022-12-20T18:32:26;100833.72;;;15.38;41.41
37450;BME280;23309;52.582;13.406;2022-12-20T18:34:52;100835.41;;;15.47;41.40
37450;BME280;23309;52.582;13.406;2022-12-20T18:37:18;100838.94;;;15.39;41.38
37450;BME280;23309;52.582;13.406;2022-12-20T18:39:44;100850.53;;;15.40;41.64
37450;BME280;23309;52.582;13.406;2022-12-20T18:42:10;100849.84;;;15.38;41.73
37450;BME280;23309;52.582;13.406;2022-12-20T18:44:36;100837.06;;;15.40;41.69
37450;BME280;23309;52.582;13.406;2022-12-20T18:47:05;100838.88;;;15.31;42.02
37450;BME280;23309;52.582;13.406;2022-12-20T18:49:31;100836.00;;;15.33;41.87
37450;BME280;23309;52.582;13.406;2022-12-20T18:51:58;100837.41;;;15.37;41.57
37450;BME280;23309;52.582;13.406;2022-12-20T18:54:24;100836.91;;;15.41;42.16
37450;BME280;23309;52.582;13.406;2022-12-20T18:56:50;100830.00;;;15.39;41.64
37450;BME280;23309;52.582;13.406;2022-12-20T18:59:16;100824.81;;;15.45;41.67